Airfield :







YOU CAN JOIN US ON...

 
LOGIN :

Register | Disclaimer

   EN    FR    IT 

 









Legend :    VFR   Marginal VFR   IFR   Intensive IFR   Very Intensive IFR
Visi :
Ceiling :
>= 8 km
>= 3000ft
5 to 8 km
1000 to 3000 ft
1500m to 5 km
500 to 1000 ft
800 to 1500m
200 to 500 ft
< 800m
< 200 ft
Symbols :   Thunderstorms  Fog  Heavy snow  Heavy precipitations  Wind > 20 kt






- Airport Elevation : 489 ft


KHUL - Houlton International

CURRENT METAR :
  • 211453Z AUTO 16008G15KT 10SM CLR 22/14 A2985 RMK AO2 SLP108 T02170139 58013

EXPIRED METARs :
  • 211353Z AUTO 19007KT 10SM CLR 19/13 A2987 RMK AO2 SLP114 T01940133
  • 211253Z AUTO 23005KT 10SM CLR 16/12 A2988 RMK AO2 SLP119 T01610122
  • 211231Z AUTO 21006KT 10SM SCT008 16/12 A2989 RMK AO2 T01560117
  • 211153Z AUTO 21006KT 10SM OVC007 13/11 A2989 RMK AO2 SLP122 T01330111 10144 20122 51011

TAF KHUL
Valid from the 21 at 13:00 until the 22 at 12:00 UTC


211242Z 2113/2212 21007KT P6SM SCT007 BKN150
FM211400 24007KT P6SM SCT070
FM212100 25008KT P6SM VCSH BKN080
KZBW FIR / North America



MET'MAP, your aeronautical weather chart ! - Copyright ORBIFLY December 2007 - Disclaimer

ORBIFLY MET'MAP TEAM :

Programming & Development : Alexandra Zaïnal
Original concept : Baudouin d'Aumeries
Technical & hardware support : Manuel Goepfert
Assistance : Marc-Olivier Méhu




SOURCES & CREDITS :

   NOAA